aviador You're here:

YTRE Decoded Metar

TAREE AIRPORT in _UNIDENTIFIED
Report Time2017-08-18 04:32:00
UTC Time2017-08-18 04:49:04
Flight Rules vfr VFR
Wind250° at 18 Gusting to 28 kt
W.Decomp.*RWY 22: 17.1 kt HW 5.6 kt RCW
W.Rank250° ranks 5
Current wind is above 250° avg. (6.0)
Visibility9999 m
Phenomena:N/A
Clouds:N/A
Expected CloudBase > 8,800 ft AGL from Temp-Dew spread
CeilingNone
Temp19°C (ISA +4)
Dew Point-3°C (22% RH)
AAT10.1°C
QNH1008 hPa
Density Alt758 ft
Elevation39 ft
Report Wrong Elevation
Raw Report
SPECI YTRE 180432Z AUTO 25018G28KT 9999 // NCD 19/M03 Q1008=

Extra information for YTRE:More info

Metar Taf Metar & Taf Last 4 Metars F.Rules Stats Wind Profile Meteogram Temp Stats Airport Information Weather charts Add Link Nearby VenuesMetar ALERT Operation Metar Decoded Social comments